This is the latest recevied weather packets stored in our database for station/object OE2SWM. If no packets are shown the sender has not sent any weather packets the latest 10 day(s).
| Time | Temp. | Humidity | Pressure | Rain* | Wind** | Luminosity | Snow |
|---|---|---|---|---|---|---|---|
| 1777337400 | 3.89° C | 92% | 972 hPa | 0 mm | - | - | - |
| 1777328400 | 5.56° C | 87% | 972 hPa | 0 mm | - | - | - |
| 1777312800 | 12.78° C | 65% | 971 hPa | 0 mm | - | - | - |
| 1777311600 | 15° C | 57% | 971 hPa | 0 mm | - | - | - |
| 1777311000 | 15.56° C | 52% | 971 hPa | 0 mm | - | - | - |
| 1777310400 | 15.56° C | 55% | 971 hPa | 0 mm | - | - | - |
| 1777306800 | 18.89° C | 47% | 971 hPa | 0 mm | - | - | - |
| 1777306200 | 18.89° C | 46% | 971 hPa | 0 mm | - | - | - |
| 1777305600 | 18.89° C | 46% | 971 hPa | 0 mm | - | - | - |
| 1777304400 | 18.89° C | 46% | 971 hPa | 0 mm | - | - | - |
| 1777303800 | 18.89° C | 46% | 971 hPa | 0 mm | - | - | - |
| 1777303200 | 18.89° C | 44% | 971 hPa | 0 mm | - | - | - |
| 1777300800 | 20.56° C | 40% | 971 hPa | 0 mm | - | - | - |
| 1777300200 | 20.56° C | 38% | 971 hPa | 0 mm | - | - | - |
| 1777299600 | 20.56° C | 36% | 971 hPa | 0 mm | - | - | - |
| 1777299000 | 20.56° C | 39% | 972 hPa | 0 mm | - | - | - |
| 1777298400 | 20.56° C | 37% | 972 hPa | 0 mm | - | - | - |
| 1777297200 | 20.56° C | 36% | 972 hPa | 0 mm | - | - | - |
| 1777296600 | 20.56° C | 39% | 972 hPa | 0 mm | - | - | - |
| 1777295400 | 20° C | 38% | 972 hPa | 0 mm | - | - | - |
| 1777294800 | 20° C | 40% | 972 hPa | 0 mm | - | - | - |
| 1777293000 | 18.89° C | 41% | 972 hPa | 0 mm | - | - | - |
| 1777292400 | 17.78° C | 39% | 972 hPa | 0 mm | - | - | - |
| 1777291800 | 18.89° C | 42% | 972 hPa | 0 mm | - | - | - |
| 1777291200 | 18.89° C | 44% | 972 hPa | 0 mm | - | - | - |
* Rain latest hour (hover to see other rain measurements)
** Current wind speed in m/s (hover to see current wind gust speed)